KBWD/BWD METAR and TAF weather

Enter ICAO airport designator
Station Type Date Time Source
KBWD METAR 2021/09/20 04:15 UTC NOAA

KBWD 200415Z AUTO 00000KT 10SM CLR 23/14 A2989 RMK AO1


Station Type Date Time Source
KBWD Decoded METAR 2021/09/20 04:15 UTC NOAA

Brownwood, Brownwood Regional Airport, TX, United States (KBWD) 31-48N 098-57W
Sep 20, 2021 - 12:15 AM EDT / 2021.09.20 0415 UTC
Wind: Calm:0
Visibility: 10 mile(s):0
Sky conditions: clear
Temperature: 73 F (23 C)
Dew Point: 57 F (14 C)
Relative Humidity: 56%
Pressure (altimeter): 29.89 in. Hg (1012 hPa)
ob: KBWD 200415Z AUTO 00000KT 10SM CLR 23/14 A2989 RMK AO1
cycle: 4

Station Type Date Time Source
KBWD TAF UTC NOAA

Error!

Example: see airport list